Weather at Banner Estrella Medical Center Heliport

Public forecast

Using degrees Fahrenheit for public forecast. Weather courtesy of forecast.io.

Closest aviation weather report (METAR) to Banner Estrella Medical Center Heliport

Closest report is Glendale Municipal Airport, 3.5 nm (6.4 km) NNW. Retrieved 2021/07/24 13:47 UTC (1 hour ago):

KGEU 241347Z 00000KT 10SM OVC050 24/24 A3000 RMK FIRST

Closest aviation forecast (TAF) to Banner Estrella Medical Center Heliport

Forecast is more than 12 hours old.

Closest forecast is Luke Air Force Base, 7.2 nm (13.3 km) WNW. Retrieved 2021/07/23 12:06 UTC (1 day ago):

TAF KLUF 231200Z 2312/2418 10012G18KT 9999 SCT080 BKN120 OVC150 QNH2993INS TEMPO 2312/2315 VRB15G25KT VCTS BKN060 BECMG 2322/2323 15012KT 9999 BKN100 BKN150 QNH2996INS TEMPO 2403/2408 VRB15G20KT 6000 -SHRA OVC100 BECMG 2415/2416 VRB15G25KT 6000 -TSRA BKN090CB QNH2989INS TX40/2323Z TN26/2312Z